createdAt,value
2023-05-16T00:01:08.360Z,10.61
2023-05-16T00:03:38.083Z,10.57
2023-05-16T00:06:07.740Z,10.59
2023-05-16T00:08:36.298Z,10.56
2023-05-16T00:11:04.927Z,10.53
2023-05-16T00:13:33.241Z,10.53
2023-05-16T00:16:02.691Z,10.54
2023-05-16T00:18:30.836Z,10.53
2023-05-16T00:20:58.826Z,10.53
2023-05-16T00:23:28.029Z,10.52
2023-05-16T00:25:56.199Z,10.52
2023-05-16T00:28:24.141Z,10.51
2023-05-16T00:30:51.995Z,10.45
2023-05-16T00:33:20.267Z,10.53
2023-05-16T00:35:48.364Z,10.49
2023-05-16T00:38:16.157Z,10.48
2023-05-16T00:40:45.416Z,10.46
2023-05-16T00:43:13.574Z,10.43
2023-05-16T00:45:41.371Z,10.42
2023-05-16T00:48:09.585Z,10.38
2023-05-16T00:50:38.748Z,10.24
2023-05-16T00:53:06.645Z,10.34
2023-05-16T00:55:34.458Z,10.34
2023-05-16T00:58:03.787Z,10.29
2023-05-16T01:00:31.575Z,10.29
2023-05-16T01:02:59.495Z,10.28
2023-05-16T01:05:27.605Z,10.26
2023-05-16T01:07:55.613Z,10.27
2023-05-16T01:10:23.504Z,10.26
2023-05-16T01:12:58.085Z,10.22
2023-05-16T01:15:30.078Z,10.23
2023-05-16T01:18:02.553Z,10.24
2023-05-16T01:20:36.786Z,10.25
2023-05-16T01:23:19.570Z,10.27
2023-05-16T01:25:58.343Z,10.23
2023-05-16T01:28:28.632Z,10.17
2023-05-16T01:30:56.401Z,10.14
2023-05-16T01:33:24.196Z,10.03
2023-05-16T01:35:57.048Z,10.10
2023-05-16T01:38:27.628Z,10.01
2023-05-16T01:40:59.629Z,9.99
2023-05-16T01:43:32.375Z,9.98
2023-05-16T01:46:05.182Z,9.94
2023-05-16T01:48:37.441Z,9.93
2023-05-16T01:51:05.871Z,9.93
2023-05-16T01:53:38.757Z,9.89
2023-05-16T01:56:10.820Z,9.91
2023-05-16T01:58:40.913Z,9.91
2023-05-16T02:01:09.143Z,9.88
2023-05-16T02:03:37.022Z,9.86
2023-05-16T02:06:05.043Z,9.84
2023-05-16T02:08:32.888Z,9.84
2023-05-16T02:11:00.780Z,9.85
2023-05-16T02:13:28.528Z,9.84
2023-05-16T02:15:57.696Z,9.80
2023-05-16T02:18:26.067Z,9.81
2023-05-16T02:20:54.020Z,9.80
2023-05-16T02:23:21.775Z,9.75
2023-05-16T02:25:50.359Z,9.79
2023-05-16T02:28:18.084Z,9.80
2023-05-16T02:30:45.883Z,9.78
2023-05-16T02:33:15.001Z,9.77
2023-05-16T02:35:42.771Z,9.78
2023-05-16T02:38:10.553Z,9.77
2023-05-16T02:40:38.259Z,9.76
2023-05-16T02:43:06.036Z,9.75
2023-05-16T02:45:33.834Z,9.75
2023-05-16T02:48:01.637Z,9.73
2023-05-16T02:50:30.827Z,9.70
2023-05-16T02:52:59.834Z,9.68
2023-05-16T02:55:27.693Z,9.70
2023-05-16T02:57:55.550Z,9.65
2023-05-16T03:00:23.672Z,9.63
2023-05-16T03:02:51.432Z,9.63
2023-05-16T03:05:19.644Z,9.61
2023-05-16T03:07:48.724Z,9.60
2023-05-16T03:10:16.484Z,9.61
2023-05-16T03:12:44.225Z,9.60
2023-05-16T03:15:12.173Z,9.62
2023-05-16T03:17:39.946Z,9.58
2023-05-16T03:20:09.565Z,9.60
2023-05-16T03:22:37.318Z,9.57
2023-05-16T03:25:07.959Z,9.55
2023-05-16T03:27:36.307Z,9.57
2023-05-16T03:30:04.066Z,9.54
2023-05-16T03:32:31.867Z,9.55
2023-05-16T03:34:59.703Z,9.51
2023-05-16T03:37:27.540Z,9.51
2023-05-16T03:39:55.308Z,9.51
2023-05-16T03:42:24.480Z,9.50
2023-05-16T03:44:52.271Z,9.48
2023-05-16T03:47:20.047Z,9.45
2023-05-16T03:49:47.813Z,9.46
2023-05-16T03:52:15.582Z,9.26
2023-05-16T03:54:43.359Z,9.45
2023-05-16T03:57:11.106Z,9.46
2023-05-16T03:59:40.253Z,9.44
2023-05-16T04:02:09.141Z,9.45
2023-05-16T04:04:36.959Z,9.45
2023-05-16T04:07:04.976Z,9.44
2023-05-16T04:09:32.824Z,9.39
2023-05-16T04:12:02.001Z,9.43
2023-05-16T04:14:29.869Z,9.46
2023-05-16T04:16:59.014Z,9.45
2023-05-16T04:19:26.866Z,9.41
2023-05-16T04:21:54.606Z,9.46
2023-05-16T04:24:26.371Z,9.48
2023-05-16T04:26:54.189Z,9.48
2023-05-16T04:29:22.401Z,9.36
2023-05-16T04:31:50.325Z,9.52
2023-05-16T04:34:19.649Z,9.54
2023-05-16T04:36:47.402Z,9.54
2023-05-16T04:39:15.162Z,9.52
2023-05-16T04:41:42.931Z,9.54
2023-05-16T04:44:11.220Z,9.49
2023-05-16T04:46:39.345Z,9.51
2023-05-16T04:49:07.533Z,9.48
2023-05-16T04:51:36.756Z,9.49
2023-05-16T04:54:04.526Z,9.45
2023-05-16T04:56:32.292Z,9.42
2023-05-16T04:59:00.052Z,9.42
2023-05-16T05:01:27.924Z,9.36
2023-05-16T05:03:55.678Z,9.33
2023-05-16T05:06:23.504Z,9.33
2023-05-16T05:08:52.581Z,9.35
2023-05-16T05:11:21.108Z,9.35
2023-05-16T05:13:50.263Z,9.33
2023-05-16T05:16:19.761Z,9.29
2023-05-16T05:18:47.673Z,9.28
2023-05-16T05:21:15.666Z,9.24
2023-05-16T05:23:43.451Z,9.22
2023-05-16T05:26:12.676Z,9.18
2023-05-16T05:28:42.179Z,9.20
2023-05-16T05:31:13.404Z,9.24
2023-05-16T05:33:42.353Z,9.28
2023-05-16T05:36:10.838Z,9.30
2023-05-16T05:38:38.590Z,9.28
2023-05-16T05:41:06.787Z,9.25
2023-05-16T05:43:35.883Z,9.23
2023-05-16T05:46:03.700Z,9.23
2023-05-16T05:48:32.519Z,9.24
2023-05-16T05:51:00.560Z,9.27
2023-05-16T05:53:28.392Z,9.20
2023-05-16T05:55:56.166Z,9.17
2023-05-16T05:58:23.947Z,9.13
2023-05-16T06:00:53.062Z,9.12
2023-05-16T06:03:21.320Z,9.14
2023-05-16T06:05:49.215Z,9.07
2023-05-16T06:08:17.260Z,9.10
2023-05-16T06:10:45.097Z,9.12
2023-05-16T06:13:12.836Z,9.14
2023-05-16T06:15:40.634Z,9.11
2023-05-16T06:18:09.868Z,9.09
2023-05-16T06:20:37.687Z,9.07
2023-05-16T06:23:05.436Z,9.07
2023-05-16T06:25:33.339Z,9.09
2023-05-16T06:28:01.087Z,9.04
2023-05-16T06:30:28.899Z,9.02
2023-05-16T06:32:56.783Z,9.05
2023-05-16T06:35:26.449Z,9.03
2023-05-16T06:37:54.426Z,8.99
2023-05-16T06:40:22.187Z,8.97
2023-05-16T06:42:49.983Z,8.98
2023-05-16T06:45:17.865Z,8.95
2023-05-16T06:47:45.680Z,8.99
2023-05-16T06:50:13.913Z,9.05
2023-05-16T06:52:43.170Z,9.07
2023-05-16T06:55:11.563Z,9.09
2023-05-16T06:57:39.432Z,9.03
2023-05-16T07:00:09.417Z,9.04
2023-05-16T07:02:37.367Z,9.07
2023-05-16T07:05:05.704Z,9.07
2023-05-16T07:07:33.614Z,9.16
2023-05-16T07:10:02.988Z,9.15
2023-05-16T07:12:31.364Z,9.06
2023-05-16T07:14:59.693Z,9.11
2023-05-16T07:17:27.782Z,9.11
2023-05-16T07:19:55.557Z,9.09
2023-05-16T07:22:23.426Z,9.06
2023-05-16T07:24:53.272Z,9.05
2023-05-16T07:27:23.704Z,9.05
2023-05-16T07:29:51.569Z,9.06
2023-05-16T07:32:19.456Z,9.05
2023-05-16T07:34:47.267Z,9.03
2023-05-16T07:37:16.213Z,8.99
2023-05-16T07:39:44.019Z,8.92
2023-05-16T07:42:11.940Z,8.96
2023-05-16T07:44:41.116Z,8.97
2023-05-16T07:47:08.939Z,8.89
2023-05-16T07:49:36.761Z,8.74
2023-05-16T07:52:04.831Z,8.74
2023-05-16T07:54:33.520Z,8.68
2023-05-16T07:57:01.403Z,8.67
2023-05-16T07:59:29.491Z,8.73
2023-05-16T08:01:59.025Z,8.76
2023-05-16T08:04:26.857Z,8.75
2023-05-16T08:06:54.637Z,8.66
2023-05-16T08:09:22.584Z,8.71
2023-05-16T08:11:50.402Z,8.56
2023-05-16T08:14:18.854Z,8.63
2023-05-16T08:16:46.708Z,8.66
2023-05-16T08:19:15.962Z,8.74
2023-05-16T08:21:43.815Z,8.86
2023-05-16T08:24:12.232Z,8.86
2023-05-16T08:26:40.219Z,8.92
2023-05-16T08:29:08.178Z,8.94
2023-05-16T08:31:36.104Z,8.94
2023-05-16T08:34:06.474Z,9.02
2023-05-16T08:36:36.310Z,9.15
2023-05-16T08:39:04.777Z,9.39
2023-05-16T08:41:32.735Z,9.47
2023-05-16T08:44:00.658Z,9.54
2023-05-16T08:46:30.260Z,9.51
2023-05-16T08:49:00.423Z,9.47
2023-05-16T08:51:30.179Z,9.38
2023-05-16T08:54:02.263Z,9.65
2023-05-16T08:56:30.272Z,9.57
2023-05-16T08:58:58.651Z,9.73
2023-05-16T09:01:26.624Z,9.98
2023-05-16T09:03:54.588Z,9.94
2023-05-16T09:06:22.473Z,9.88
2023-05-16T09:08:50.711Z,9.91
2023-05-16T09:11:20.090Z,9.93
2023-05-16T09:13:48.178Z,9.92
2023-05-16T09:16:17.432Z,9.97
2023-05-16T09:18:47.091Z,9.86
2023-05-16T09:21:15.866Z,9.74
2023-05-16T09:23:44.069Z,9.87
2023-05-16T09:26:12.238Z,10.02
2023-05-16T09:28:41.484Z,10.09
2023-05-16T09:31:22.369Z,9.87
2023-05-16T09:33:50.999Z,9.79
2023-05-16T09:36:18.897Z,9.69
2023-05-16T09:38:46.744Z,9.75
2023-05-16T09:41:14.808Z,9.85
2023-05-16T09:43:45.211Z,9.72
2023-05-16T09:46:16.689Z,9.61
2023-05-16T09:48:46.415Z,9.48
2023-05-16T09:51:14.985Z,9.54
2023-05-16T09:53:43.148Z,9.51
2023-05-16T09:56:12.717Z,9.44
2023-05-16T09:58:41.792Z,9.47
2023-05-16T10:01:11.958Z,9.43
2023-05-16T10:03:41.221Z,9.48
2023-05-16T10:06:09.517Z,9.54
2023-05-16T10:08:38.307Z,9.55
2023-05-16T10:11:07.185Z,9.68
2023-05-16T10:13:36.875Z,9.68
2023-05-16T10:16:08.822Z,9.68
2023-05-16T10:18:39.961Z,9.83
2023-05-16T10:21:11.198Z,9.88
2023-05-16T10:23:42.543Z,9.70
2023-05-16T10:26:10.895Z,9.87
2023-05-16T10:28:39.065Z,9.71
2023-05-16T10:31:07.258Z,9.64
2023-05-16T10:33:38.809Z,9.69
2023-05-16T10:36:07.281Z,9.87
2023-05-16T10:38:35.655Z,10.06
2023-05-16T10:41:03.702Z,10.14
2023-05-16T10:43:33.429Z,10.25
2023-05-16T10:46:04.827Z,10.35
2023-05-16T10:48:33.669Z,10.31
2023-05-16T10:51:04.173Z,10.40
2023-05-16T10:53:34.015Z,10.59
2023-05-16T10:56:12.227Z,10.93
2023-05-16T10:58:48.811Z,10.97
2023-05-16T11:01:24.517Z,11.33
2023-05-16T11:04:10.315Z,11.54
2023-05-16T11:06:53.454Z,11.78
2023-05-16T11:09:28.522Z,11.94
2023-05-16T11:11:58.652Z,11.96
2023-05-16T11:14:28.916Z,12.29
2023-05-16T11:17:02.258Z,12.59
2023-05-16T11:19:32.631Z,12.49
2023-05-16T11:22:24.250Z,12.63
2023-05-16T11:24:54.508Z,12.79
2023-05-16T11:27:24.478Z,13.13
2023-05-16T11:29:52.571Z,13.39
2023-05-16T11:32:22.852Z,13.47
2023-05-16T11:34:51.247Z,13.65
2023-05-16T11:37:21.776Z,14.00
2023-05-16T11:39:49.945Z,14.16
2023-05-16T11:42:18.978Z,14.96
2023-05-16T11:44:46.881Z,15.58
2023-05-16T11:47:14.723Z,15.75
2023-05-16T11:49:43.313Z,16.08
2023-05-16T11:52:11.410Z,15.88
2023-05-16T11:54:42.407Z,15.85
2023-05-16T11:57:10.459Z,15.70
2023-05-16T11:59:38.453Z,15.98
2023-05-16T12:02:07.048Z,16.26
2023-05-16T12:04:35.213Z,16.45
2023-05-16T12:07:03.987Z,16.12
2023-05-16T12:09:31.836Z,16.22
2023-05-16T12:12:01.091Z,16.11
2023-05-16T12:14:28.978Z,15.97
2023-05-16T12:16:57.032Z,16.40
2023-05-16T12:19:25.348Z,16.32
2023-05-16T12:21:56.131Z,15.81
2023-05-16T12:24:30.966Z,15.93
2023-05-16T12:27:00.133Z,16.58
2023-05-16T12:29:27.961Z,17.04
2023-05-16T12:31:55.995Z,17.48
2023-05-16T12:34:24.365Z,17.52
2023-05-16T12:36:53.529Z,17.46
2023-05-16T12:39:21.616Z,17.50
2023-05-16T12:41:49.462Z,17.37
2023-05-16T12:44:19.885Z,17.56
2023-05-16T12:46:49.767Z,17.04
2023-05-16T12:49:21.038Z,16.77
2023-05-16T12:51:52.658Z,16.74
2023-05-16T12:54:22.867Z,17.05
2023-05-16T12:56:52.115Z,17.63
2023-05-16T12:59:21.338Z,17.46
2023-05-16T13:01:49.218Z,18.21
2023-05-16T13:04:20.215Z,18.15
2023-05-16T13:06:58.588Z,17.84
2023-05-16T13:09:32.112Z,17.59
2023-05-16T13:12:01.026Z,17.80
2023-05-16T13:14:30.243Z,18.14
2023-05-16T13:16:58.053Z,17.44
2023-05-16T13:19:26.260Z,17.16
2023-05-16T13:21:54.244Z,16.92
2023-05-16T13:24:22.050Z,17.24
2023-05-16T13:26:49.844Z,17.70
2023-05-16T13:29:17.618Z,17.92
2023-05-16T13:31:46.929Z,17.92
2023-05-16T13:34:14.865Z,18.17
2023-05-16T13:36:53.687Z,18.05
2023-05-16T13:39:23.024Z,18.12
2023-05-16T13:41:51.571Z,18.14
2023-05-16T13:44:19.667Z,17.74
2023-05-16T13:46:48.928Z,17.49
2023-05-16T13:49:16.872Z,17.96
2023-05-16T13:51:44.614Z,18.43
2023-05-16T13:54:12.459Z,18.17
2023-05-16T13:56:40.462Z,17.77
2023-05-16T13:59:09.632Z,17.74
2023-05-16T14:01:38.672Z,17.43
2023-05-16T14:04:07.987Z,17.88
2023-05-16T14:06:35.867Z,18.37
2023-05-16T14:09:03.976Z,18.33
2023-05-16T14:11:31.796Z,17.50
2023-05-16T14:13:59.610Z,17.30
2023-05-16T14:16:27.696Z,16.87
2023-05-16T14:18:55.943Z,16.99
2023-05-16T14:21:25.153Z,17.44
2023-05-16T14:23:52.953Z,17.58
2023-05-16T14:26:24.673Z,17.48
2023-05-16T14:28:52.547Z,17.65
2023-05-16T14:31:20.641Z,17.62
2023-05-16T14:33:48.577Z,16.97
2023-05-16T14:36:16.333Z,17.37
2023-05-16T14:38:45.494Z,17.83
2023-05-16T14:41:13.218Z,17.98
2023-05-16T14:43:41.003Z,18.08
2023-05-16T14:46:08.850Z,17.82
2023-05-16T14:48:36.640Z,18.06
2023-05-16T14:51:04.889Z,17.85
2023-05-16T14:53:32.710Z,17.69
2023-05-16T14:56:02.869Z,17.76
2023-05-16T14:58:30.692Z,17.89
2023-05-16T15:00:58.638Z,17.49
2023-05-16T15:03:26.528Z,17.97
2023-05-16T15:05:54.768Z,18.29
2023-05-16T15:08:22.832Z,18.36
2023-05-16T15:10:50.598Z,18.26
2023-05-16T15:13:19.720Z,18.41
2023-05-16T15:15:47.527Z,18.51
2023-05-16T15:18:15.343Z,18.36
2023-05-16T15:20:43.104Z,18.17
2023-05-16T15:23:12.026Z,18.52
2023-05-16T15:25:39.802Z,18.31
2023-05-16T15:28:07.618Z,18.64
2023-05-16T15:30:36.840Z,17.92
2023-05-16T15:33:04.678Z,17.60
2023-05-16T15:35:32.592Z,17.25
2023-05-16T15:38:00.384Z,17.14
2023-05-16T15:40:28.192Z,16.91
2023-05-16T15:42:56.235Z,16.87
2023-05-16T15:45:24.045Z,16.78
2023-05-16T15:47:53.211Z,16.46
2023-05-16T15:50:20.990Z,16.40
2023-05-16T15:52:49.077Z,16.63
2023-05-16T15:55:16.919Z,16.70
2023-05-16T15:57:44.800Z,16.71
2023-05-16T16:00:13.661Z,16.45
2023-05-16T16:02:43.502Z,16.26
2023-05-16T16:05:12.904Z,16.10
2023-05-16T16:07:40.675Z,15.91
2023-05-16T16:10:09.797Z,15.52
2023-05-16T16:12:37.588Z,15.49
2023-05-16T16:15:06.610Z,15.32
2023-05-16T16:17:34.484Z,15.37
2023-05-16T16:20:02.290Z,15.33
2023-05-16T16:22:31.491Z,15.58
2023-05-16T16:25:00.568Z,15.92
2023-05-16T16:27:28.399Z,16.25
2023-05-16T16:29:56.350Z,15.99
2023-05-16T16:32:24.200Z,16.22
2023-05-16T16:34:52.021Z,16.45
2023-05-16T16:37:20.741Z,16.49
2023-05-16T16:39:49.879Z,16.55
2023-05-16T16:42:17.642Z,16.72
2023-05-16T16:44:45.531Z,16.54
2023-05-16T16:47:13.354Z,16.20
2023-05-16T16:49:41.700Z,16.24
2023-05-16T16:52:09.626Z,16.27
2023-05-16T16:54:37.395Z,16.17
2023-05-16T16:57:07.015Z,16.20
2023-05-16T16:59:35.968Z,16.39
2023-05-16T17:02:03.777Z,16.03
2023-05-16T17:04:31.775Z,15.92
2023-05-16T17:06:59.526Z,15.95
2023-05-16T17:09:27.285Z,16.09
2023-05-16T17:11:55.021Z,16.17
2023-05-16T17:14:24.244Z,16.12
2023-05-16T17:16:52.068Z,15.91
2023-05-16T17:19:19.910Z,15.70
2023-05-16T17:21:47.788Z,15.34
2023-05-16T17:24:15.552Z,15.22
2023-05-16T17:26:43.429Z,15.20
2023-05-16T17:29:11.759Z,15.02
2023-05-16T17:31:41.032Z,14.81
2023-05-16T17:34:08.822Z,14.46
2023-05-16T17:36:38.042Z,14.19
2023-05-16T17:39:08.392Z,14.00
2023-05-16T17:41:36.302Z,13.92
2023-05-16T17:44:06.693Z,14.00
2023-05-16T17:46:34.605Z,13.88
2023-05-16T17:49:04.409Z,13.84
2023-05-16T17:51:46.473Z,13.69
2023-05-16T17:54:14.280Z,13.73
2023-05-16T17:56:42.796Z,13.68
2023-05-16T17:59:10.860Z,13.45
2023-05-16T18:01:39.695Z,13.37
2023-05-16T18:04:09.346Z,13.32
2023-05-16T18:06:38.677Z,13.26
2023-05-16T18:09:09.652Z,13.33
2023-05-16T18:11:38.570Z,13.12
2023-05-16T18:14:06.544Z,13.13
2023-05-16T18:16:34.288Z,13.10
2023-05-16T18:19:02.343Z,13.05
2023-05-16T18:21:31.560Z,13.04
2023-05-16T18:23:59.587Z,12.94
2023-05-16T18:26:28.902Z,12.94
2023-05-16T18:28:56.761Z,12.79
2023-05-16T18:31:24.575Z,12.78
2023-05-16T18:33:52.448Z,12.75
2023-05-16T18:36:20.218Z,12.74
2023-05-16T18:38:49.410Z,12.61
2023-05-16T18:41:17.182Z,12.51
2023-05-16T18:43:45.072Z,12.28
2023-05-16T18:46:12.842Z,12.21
2023-05-16T18:48:40.595Z,12.09
2023-05-16T18:51:08.455Z,11.79
2023-05-16T18:53:36.555Z,11.78
2023-05-16T18:56:05.910Z,11.72
2023-05-16T18:58:33.693Z,11.70
2023-05-16T19:01:01.770Z,11.62
2023-05-16T19:03:29.604Z,11.58
2023-05-16T19:05:57.691Z,11.53
2023-05-16T19:08:29.204Z,11.50
2023-05-16T19:11:01.803Z,11.39
2023-05-16T19:13:32.223Z,11.38
2023-05-16T19:16:00.088Z,11.39
2023-05-16T19:18:28.185Z,11.22
2023-05-16T19:20:56.098Z,11.20
2023-05-16T19:23:23.887Z,11.12
2023-05-16T19:25:51.732Z,11.03
2023-05-16T19:28:19.473Z,11.03
2023-05-16T19:30:48.634Z,11.00
2023-05-16T19:33:16.585Z,10.93
2023-05-16T19:35:44.344Z,10.80
2023-05-16T19:38:12.124Z,10.78
2023-05-16T19:40:39.968Z,10.60
2023-05-16T19:43:08.851Z,10.59
2023-05-16T19:45:37.284Z,10.57
2023-05-16T19:48:07.572Z,10.50
2023-05-16T19:50:35.457Z,10.46
2023-05-16T19:53:04.115Z,10.38
2023-05-16T19:55:32.203Z,10.17
2023-05-16T19:58:00.001Z,10.29
2023-05-16T20:00:27.803Z,10.19
2023-05-16T20:02:55.701Z,10.15
2023-05-16T20:05:25.231Z,10.12
2023-05-16T20:07:54.607Z,10.04
2023-05-16T20:10:23.002Z,9.95
2023-05-16T20:12:51.410Z,9.96
2023-05-16T20:15:19.187Z,9.83
2023-05-16T20:17:47.109Z,9.75
2023-05-16T20:20:14.855Z,9.67
2023-05-16T20:22:43.995Z,9.65
2023-05-16T20:25:12.084Z,9.54
2023-05-16T20:27:40.008Z,9.47
2023-05-16T20:30:08.857Z,9.43
2023-05-16T20:32:36.699Z,9.45
2023-05-16T20:35:09.011Z,9.36
2023-05-16T20:37:36.860Z,9.34
2023-05-16T20:40:07.324Z,9.33
2023-05-16T20:42:35.146Z,9.32
2023-05-16T20:45:02.912Z,9.18
2023-05-16T20:47:30.804Z,9.12
2023-05-16T20:50:01.656Z,8.99
2023-05-16T20:52:29.419Z,8.99
2023-05-16T20:54:58.139Z,8.98
2023-05-16T20:57:30.372Z,9.00
2023-05-16T20:59:58.097Z,9.05
2023-05-16T21:02:25.899Z,9.07
2023-05-16T21:04:53.749Z,9.02
2023-05-16T21:07:21.554Z,8.95
2023-05-16T21:09:49.392Z,8.92
2023-05-16T21:12:17.132Z,8.90
2023-05-16T21:14:46.715Z,8.87
2023-05-16T21:17:14.603Z,8.86
2023-05-16T21:19:42.463Z,8.77
2023-05-16T21:22:11.284Z,8.67
2023-05-16T21:24:39.042Z,8.65
2023-05-16T21:27:06.913Z,8.63
2023-05-16T21:29:34.654Z,8.54
2023-05-16T21:32:03.826Z,8.50
2023-05-16T21:34:31.564Z,8.48
2023-05-16T21:36:59.956Z,8.42
2023-05-16T21:39:27.749Z,8.37
2023-05-16T21:41:55.843Z,8.29
2023-05-16T21:44:23.647Z,8.25
2023-05-16T21:46:51.412Z,8.22
2023-05-16T21:49:20.725Z,8.15
2023-05-16T21:51:48.488Z,8.20
2023-05-16T21:54:16.265Z,8.19
2023-05-16T21:56:44.031Z,8.14
2023-05-16T21:59:11.778Z,8.14
2023-05-16T22:01:39.545Z,8.13
2023-05-16T22:04:07.447Z,8.13
2023-05-16T22:06:36.913Z,8.11
2023-05-16T22:09:05.011Z,8.10
2023-05-16T22:11:32.849Z,8.10
2023-05-16T22:14:00.635Z,8.06
2023-05-16T22:16:28.464Z,8.07
2023-05-16T22:18:56.391Z,8.02
2023-05-16T22:21:24.290Z,8.02
2023-05-16T22:23:53.453Z,7.97
2023-05-16T22:26:21.348Z,7.95
2023-05-16T22:28:49.145Z,7.90
2023-05-16T22:31:16.985Z,7.87
2023-05-16T22:33:44.917Z,7.84
2023-05-16T22:36:12.826Z,7.85
2023-05-16T22:38:40.590Z,7.83
2023-05-16T22:41:09.686Z,7.73
2023-05-16T22:43:37.482Z,7.73
2023-05-16T22:46:05.231Z,7.71
2023-05-16T22:48:33.015Z,7.73
2023-05-16T22:51:02.084Z,7.78
2023-05-16T22:53:29.961Z,7.74
2023-05-16T22:55:58.808Z,7.70
2023-05-16T22:58:27.934Z,7.72
2023-05-16T23:00:55.726Z,7.72
2023-05-16T23:03:23.601Z,7.70
2023-05-16T23:05:51.448Z,7.69
2023-05-16T23:08:19.213Z,7.67
2023-05-16T23:10:47.430Z,7.61
2023-05-16T23:13:15.342Z,7.55
2023-05-16T23:15:44.442Z,7.53
2023-05-16T23:18:12.584Z,7.59
2023-05-16T23:20:40.495Z,7.57
2023-05-16T23:23:08.383Z,7.55
2023-05-16T23:25:36.185Z,7.47
2023-05-16T23:28:04.080Z,7.43
2023-05-16T23:30:31.937Z,7.41
2023-05-16T23:33:01.174Z,7.36
2023-05-16T23:35:29.126Z,7.35
2023-05-16T23:37:57.018Z,7.33
2023-05-16T23:40:24.755Z,7.31
2023-05-16T23:42:52.515Z,7.30
2023-05-16T23:45:20.277Z,7.26
2023-05-16T23:47:48.145Z,7.21
2023-05-16T23:50:17.877Z,7.21
2023-05-16T23:52:45.680Z,7.21
2023-05-16T23:55:13.491Z,7.17
2023-05-16T23:57:41.385Z,7.09
